< Typhoon 200424 2004 Season Typhoon 200426 >
Typhoon 200425 (MUIFA)
General InformationTrack Information on Google MapsDetailed Wind InformationAccess Analytics MapList of All Images || NewsDisaster Info.WeblogTrackbackTyphoon FrontResourceGoogle EarthGE AnimationAtom FeedGeoJSON
Detalied Best Track (Time Zone = UTC)
Year Month Day Hour Lat. Long. Pressure (hPa) Wind (kt) Class Image Chart
2004 11 13 18 8.9 134.4 1004 0 2 Image Chart
2004 11 14 00 10.1 131.5 1004 0 2 Image Chart
2004 11 14 06 11.2 130.7 1000 0 2 Image Chart
2004 11 14 12 12.0 128.5 1000 0 2 Image Chart
2004 11 14 18 12.5 126.8 996 35 3 Image Chart
2004 11 15 00 12.2 126.0 996 35 3 Image Chart
2004 11 15 06 13.2 125.8 996 35 3 Image Chart
2004 11 15 12 13.9 125.3 996 35 3 Image Chart
2004 11 15 18 14.0 125.4 996 35 3 Image Chart
2004 11 16 00 14.1 125.4 994 35 3 Image Chart
2004 11 16 06 14.6 124.6 990 45 3 Image Chart
2004 11 16 12 14.4 124.0 990 50 4 Image Chart
2004 11 16 18 14.4 123.8 990 50 4 Image Chart
2004 11 17 00 14.5 123.7 985 50 4 Image Chart
2004 11 17 06 14.8 123.7 985 50 4 Image Chart
2004 11 17 12 15.1 123.8 975 55 4 Image Chart
2004 11 17 18 15.5 123.7 960 65 5 Image Chart
2004 11 18 00 15.6 123.7 960 75 5 Image Chart
2004 11 18 06 15.8 123.9 950 80 5 Image Chart
2004 11 18 12 15.9 124.1 950 80 5 Image Chart
2004 11 18 18 15.8 124.3 955 75 5 Image Chart
2004 11 19 00 15.5 124.3 960 70 5 Image Chart
2004 11 19 06 14.8 124.1 960 70 5 Image Chart
2004 11 19 12 14.3 123.7 965 65 5 Image Chart
2004 11 19 18 13.5 122.6 985 50 4 Image Chart
2004 11 20 00 12.8 121.5 990 45 3 Image Chart
2004 11 20 06 12.4 120.2 980 55 4 Image Chart
2004 11 20 12 12.5 119.5 980 55 4 Image Chart
2004 11 20 18 12.4 118.4 980 55 4 Image Chart
2004 11 21 00 12.1 117.2 980 55 4 Image Chart
2004 11 21 06 12.0 116.1 975 60 4 Image Chart
2004 11 21 12 11.9 115.2 965 65 5 Image Chart
2004 11 21 18 11.8 114.3 965 65 5 Image Chart
2004 11 22 00 11.5 113.7 965 65 5 Image Chart
2004 11 22 06 11.0 112.9 975 60 4 Image Chart
2004 11 22 12 10.8 112.7 975 60 4 Image Chart
2004 11 22 18 10.6 112.3 975 60 4 Image Chart
2004 11 23 00 10.6 112.2 980 55 4 Image Chart
2004 11 23 06 10.1 111.5 985 55 4 Image Chart
2004 11 23 12 9.9 110.8 985 55 4 Image Chart
2004 11 23 18 9.6 110.2 990 50 4 Image Chart
2004 11 24 00 9.0 109.2 990 50 4 Image Chart
2004 11 24 06 8.9 107.8 994 45 3 Image Chart
2004 11 24 12 8.6 106.2 998 35 3 Image Chart
2004 11 24 18 8.5 104.8 998 35 3 Image Chart
2004 11 25 00 8.4 103.8 998 35 3 Image Chart
2004 11 25 06 8.5 102.0 1000 35 3 Image Chart
2004 11 25 12 9.2 100.3 1004 0 2 Image Chart
2004 11 25 18 10.1 99.8 1008 0 2 Image Chart
Japan Meteorological Agency Best Track Data | Correction Date : 2006-01-18
< Typhoon 200424 2004 Season Typhoon 200426 >

Help